sensor_id;sensor_type;location;lat;lon;timestamp;pressure;altitude;pressure_sealevel;temperature
71205;BMP180;58935;54.498;18.544;2022-09-01T18:29:18;101340.20;;;15.30
71205;BMP180;58935;54.498;18.544;2022-09-01T18:31:58;101346.80;;;15.30
71205;BMP180;58935;54.498;18.544;2022-09-01T18:42:19;101346.00;;;15.20
71205;BMP180;58935;54.498;18.544;2022-09-01T18:44:55;101342.80;;;15.20
71205;BMP180;58935;54.498;18.544;2022-09-01T18:47:32;101347.60;;;15.20
71205;BMP180;58935;54.498;18.544;2022-09-01T18:50:49;101345.00;;;15.20
71205;BMP180;58935;54.498;18.544;2022-09-01T18:55:59;101349.40;;;15.20
71205;BMP180;58935;54.498;18.544;2022-09-01T18:58:30;101350.80;;;15.16
71205;BMP180;58935;54.498;18.544;2022-09-01T19:01:05;101359.60;;;15.12
71205;BMP180;58935;54.498;18.544;2022-09-01T19:03:55;101358.40;;;15.10
71205;BMP180;58935;54.498;18.544;2022-09-01T19:12:08;101357.60;;;14.90
71205;BMP180;58935;54.498;18.544;2022-09-01T19:20:19;101357.00;;;14.70
71205;BMP180;58935;54.498;18.544;2022-09-01T19:22:54;101355.80;;;14.70
71205;BMP180;58935;54.498;18.544;2022-09-01T19:25:25;101360.80;;;14.60
71205;BMP180;58935;54.498;18.544;2022-09-01T19:27:59;101356.20;;;14.60
71205;BMP180;58935;54.498;18.544;2022-09-01T19:30:34;101350.20;;;14.50
71205;BMP180;58935;54.498;18.544;2022-09-01T19:33:38;101349.60;;;14.50
71205;BMP180;58935;54.498;18.544;2022-09-01T19:36:23;101351.40;;;14.40
71205;BMP180;58935;54.498;18.544;2022-09-01T19:38:55;101350.60;;;14.40
71205;BMP180;58935;54.498;18.544;2022-09-01T19:41:46;101348.60;;;14.40
71205;BMP180;58935;54.498;18.544;2022-09-01T19:47:02;101349.20;;;14.40
71205;BMP180;58935;54.498;18.544;2022-09-01T19:55:55;101345.60;;;14.10
71205;BMP180;58935;54.498;18.544;2022-09-01T19:58:40;101345.80;;;14.10
71205;BMP180;58935;54.498;18.544;2022-09-01T20:01:35;101351.40;;;14.00
71205;BMP180;58935;54.498;18.544;2022-09-01T20:04:12;101350.60;;;13.90
71205;BMP180;58935;54.498;18.544;2022-09-01T20:18:02;101351.80;;;13.72
71205;BMP180;58935;54.498;18.544;2022-09-01T20:23:42;101360.20;;;13.70
71205;BMP180;58935;54.498;18.544;2022-09-01T20:26:29;101360.20;;;13.70
71205;BMP180;58935;54.498;18.544;2022-09-01T20:29:05;101355.00;;;13.70
71205;BMP180;58935;54.498;18.544;2022-09-01T20:37:17;101360.80;;;13.70
71205;BMP180;58935;54.498;18.544;2022-09-01T20:39:55;101358.40;;;13.70
71205;BMP180;58935;54.498;18.544;2022-09-01T20:45:02;101356.20;;;13.60
71205;BMP180;58935;54.498;18.544;2022-09-01T20:47:30;101361.20;;;13.60
71205;BMP180;58935;54.498;18.544;2022-09-01T20:49:59;101361.20;;;13.56
71205;BMP180;58935;54.498;18.544;2022-09-01T20:55:23;101365.40;;;13.50
71205;BMP180;58935;54.498;18.544;2022-09-01T20:57:57;101372.80;;;13.42
71205;BMP180;58935;54.498;18.544;2022-09-01T21:00:29;101371.40;;;13.40
71205;BMP180;58935;54.498;18.544;2022-09-01T21:03:27;101369.60;;;13.38
71205;BMP180;58935;54.498;18.544;2022-09-01T21:06:06;101367.00;;;13.30
71205;BMP180;58935;54.498;18.544;2022-09-01T21:08:43;101363.00;;;13.30
71205;BMP180;58935;54.498;18.544;2022-09-01T21:16:17;101361.40;;;13.30
71205;BMP180;58935;54.498;18.544;2022-09-01T21:21:26;101362.40;;;13.30
71205;BMP180;58935;54.498;18.544;2022-09-01T21:23:56;101352.20;;;13.30
71205;BMP180;58935;54.498;18.544;2022-09-01T21:26:23;101355.60;;;13.30
71205;BMP180;58935;54.498;18.544;2022-09-01T21:28:54;101354.40;;;13.30
71205;BMP180;58935;54.498;18.544;2022-09-01T21:31:35;101358.20;;;13.40
71205;BMP180;58935;54.498;18.544;2022-09-01T21:34:00;101362.80;;;13.40
71205;BMP180;58935;54.498;18.544;2022-09-01T21:36:31;101364.40;;;13.50
71205;BMP180;58935;54.498;18.544;2022-09-01T21:38:58;101358.60;;;13.50
71205;BMP180;58935;54.498;18.544;2022-09-01T21:41:26;101361.80;;;13.50
71205;BMP180;58935;54.498;18.544;2022-09-01T21:43:51;101366.60;;;13.50
71205;BMP180;58935;54.498;18.544;2022-09-01T21:46:16;101367.00;;;13.50
71205;BMP180;58935;54.498;18.544;2022-09-01T21:48:44;101370.80;;;13.48
71205;BMP180;58935;54.498;18.544;2022-09-01T21:51:09;101369.00;;;13.40
71205;BMP180;58935;54.498;18.544;2022-09-01T21:53:40;101368.20;;;13.30
71205;BMP180;58935;54.498;18.544;2022-09-01T21:56:05;101365.40;;;13.30
71205;BMP180;58935;54.498;18.544;2022-09-01T21:58:36;101369.00;;;13.28
71205;BMP180;58935;54.498;18.544;2022-09-01T22:01:03;101369.20;;;13.30
71205;BMP180;58935;54.498;18.544;2022-09-01T22:03:31;101370.40;;;13.30
71205;BMP180;58935;54.498;18.544;2022-09-01T22:06:04;101367.40;;;13.38
71205;BMP180;58935;54.498;18.544;2022-09-01T22:08:36;101370.40;;;13.40
71205;BMP180;58935;54.498;18.544;2022-09-01T22:11:07;101364.80;;;13.50
71205;BMP180;58935;54.498;18.544;2022-09-01T22:13:36;101362.00;;;13.52
71205;BMP180;58935;54.498;18.544;2022-09-01T22:16:02;101358.40;;;13.60
71205;BMP180;58935;54.498;18.544;2022-09-01T22:18:27;101363.40;;;13.60
71205;BMP180;58935;54.498;18.544;2022-09-01T22:21:00;101359.20;;;13.60
71205;BMP180;58935;54.498;18.544;2022-09-01T22:23:25;101355.40;;;13.60
71205;BMP180;58935;54.498;18.544;2022-09-01T22:25:51;101348.20;;;13.62
71205;BMP180;58935;54.498;18.544;2022-09-01T22:28:18;101349.20;;;13.70
71205;BMP180;58935;54.498;18.544;2022-09-01T22:30:47;101343.40;;;13.60
71205;BMP180;58935;54.498;18.544;2022-09-01T22:33:12;101346.00;;;13.62
71205;BMP180;58935;54.498;18.544;2022-09-01T22:35:43;101345.40;;;13.70
71205;BMP180;58935;54.498;18.544;2022-09-01T22:38:12;101342.00;;;13.70
71205;BMP180;58935;54.498;18.544;2022-09-01T22:40:45;101342.00;;;13.70
71205;BMP180;58935;54.498;18.544;2022-09-01T22:43:13;101344.80;;;13.70
71205;BMP180;58935;54.498;18.544;2022-09-01T22:45:49;101349.40;;;13.76
71205;BMP180;58935;54.498;18.544;2022-09-01T22:51:15;101351.00;;;13.84
71205;BMP180;58935;54.498;18.544;2022-09-01T22:53:51;101346.40;;;13.90
71205;BMP180;58935;54.498;18.544;2022-09-01T22:56:32;101350.40;;;13.90
71205;BMP180;58935;54.498;18.544;2022-09-01T22:59:03;101347.40;;;13.90
71205;BMP180;58935;54.498;18.544;2022-09-01T23:01:43;101343.40;;;13.90
71205;BMP180;58935;54.498;18.544;2022-09-01T23:04:11;101343.80;;;13.80
71205;BMP180;58935;54.498;18.544;2022-09-01T23:06:41;101347.00;;;13.80
71205;BMP180;58935;54.498;18.544;2022-09-01T23:09:28;101345.80;;;13.74
71205;BMP180;58935;54.498;18.544;2022-09-01T23:15:17;101344.80;;;13.70
71205;BMP180;58935;54.498;18.544;2022-09-01T23:17:42;101345.00;;;13.68
71205;BMP180;58935;54.498;18.544;2022-09-01T23:23:07;101342.80;;;13.68
71205;BMP180;58935;54.498;18.544;2022-09-01T23:31:39;101345.00;;;13.60
71205;BMP180;58935;54.498;18.544;2022-09-01T23:34:22;101341.60;;;13.54
71205;BMP180;58935;54.498;18.544;2022-09-01T23:36:52;101343.80;;;13.50
71205;BMP180;58935;54.498;18.544;2022-09-01T23:39:38;101343.00;;;13.40
71205;BMP180;58935;54.498;18.544;2022-09-01T23:42:06;101338.80;;;13.30
71205;BMP180;58935;54.498;18.544;2022-09-01T23:44:38;101346.40;;;13.30
71205;BMP180;58935;54.498;18.544;2022-09-01T23:47:08;101345.40;;;13.20
71205;BMP180;58935;54.498;18.544;2022-09-01T23:49:39;101343.40;;;13.20
71205;BMP180;58935;54.498;18.544;2022-09-01T23:52:13;101344.00;;;13.22
71205;BMP180;58935;54.498;18.544;2022-09-01T23:54:40;101343.60;;;13.30
71205;BMP180;58935;54.498;18.544;2022-09-01T23:57:08;101336.80;;;13.30
71205;BMP180;58935;54.498;18.544;2022-09-01T23:59:33;101337.00;;;13.30
